sensor_id;sensor_type;location;lat;lon;timestamp;P1;durP1;ratioP1;P2;durP2;ratioP2
22764;SDS011;11549;50.852;3.816;2023-05-10T00:02:10;21.17;;;12.23;;
22764;SDS011;11549;50.852;3.816;2023-05-10T00:04:38;21.42;;;12.35;;
22764;SDS011;11549;50.852;3.816;2023-05-10T00:07:06;22.55;;;12.90;;
22764;SDS011;11549;50.852;3.816;2023-05-10T00:09:38;22.70;;;13.40;;
22764;SDS011;11549;50.852;3.816;2023-05-10T00:12:06;22.30;;;13.57;;
22764;SDS011;11549;50.852;3.816;2023-05-10T00:14:34;23.08;;;13.32;;
22764;SDS011;11549;50.852;3.816;2023-05-10T00:17:03;22.40;;;14.15;;
22764;SDS011;11549;50.852;3.816;2023-05-10T00:19:31;21.58;;;14.82;;
22764;SDS011;11549;50.852;3.816;2023-05-10T00:21:59;25.88;;;14.50;;
22764;SDS011;11549;50.852;3.816;2023-05-10T00:24:27;23.05;;;15.05;;
22764;SDS011;11549;50.852;3.816;2023-05-10T00:26:57;24.50;;;15.05;;
22764;SDS011;11549;50.852;3.816;2023-05-10T00:29:26;27.77;;;15.40;;
22764;SDS011;11549;50.852;3.816;2023-05-10T00:31:55;27.50;;;16.58;;
22764;SDS011;11549;50.852;3.816;2023-05-10T00:34:24;26.30;;;15.23;;
22764;SDS011;11549;50.852;3.816;2023-05-10T00:36:52;26.38;;;15.82;;
22764;SDS011;11549;50.852;3.816;2023-05-10T00:39:21;26.90;;;16.70;;
22764;SDS011;11549;50.852;3.816;2023-05-10T00:41:49;26.50;;;16.52;;
22764;SDS011;11549;50.852;3.816;2023-05-10T00:44:18;26.92;;;16.27;;
22764;SDS011;11549;50.852;3.816;2023-05-10T00:46:47;29.50;;;17.10;;
22764;SDS011;11549;50.852;3.816;2023-05-10T00:49:16;31.25;;;18.23;;
22764;SDS011;11549;50.852;3.816;2023-05-10T00:51:45;32.55;;;17.05;;
22764;SDS011;11549;50.852;3.816;2023-05-10T00:54:13;29.67;;;17.13;;
22764;SDS011;11549;50.852;3.816;2023-05-10T00:56:42;28.80;;;17.35;;
22764;SDS011;11549;50.852;3.816;2023-05-10T00:59:15;30.77;;;17.63;;
22764;SDS011;11549;50.852;3.816;2023-05-10T01:01:45;30.13;;;17.60;;
22764;SDS011;11549;50.852;3.816;2023-05-10T01:04:14;31.00;;;18.33;;
22764;SDS011;11549;50.852;3.816;2023-05-10T01:06:43;34.25;;;18.80;;
22764;SDS011;11549;50.852;3.816;2023-05-10T01:09:11;35.00;;;19.13;;
22764;SDS011;11549;50.852;3.816;2023-05-10T01:11:39;30.90;;;17.95;;
22764;SDS011;11549;50.852;3.816;2023-05-10T01:14:08;34.97;;;18.50;;
22764;SDS011;11549;50.852;3.816;2023-05-10T01:16:37;36.03;;;20.08;;
22764;SDS011;11549;50.852;3.816;2023-05-10T01:19:10;31.70;;;18.38;;
22764;SDS011;11549;50.852;3.816;2023-05-10T01:21:47;33.83;;;18.52;;
22764;SDS011;11549;50.852;3.816;2023-05-10T01:24:26;33.45;;;18.48;;
22764;SDS011;11549;50.852;3.816;2023-05-10T01:27:19;36.05;;;19.08;;
22764;SDS011;11549;50.852;3.816;2023-05-10T01:30:05;34.90;;;18.45;;
22764;SDS011;11549;50.852;3.816;2023-05-10T01:32:52;33.40;;;18.40;;
22764;SDS011;11549;50.852;3.816;2023-05-10T01:35:28;34.78;;;18.13;;
22764;SDS011;11549;50.852;3.816;2023-05-10T01:38:04;34.47;;;18.15;;
22764;SDS011;11549;50.852;3.816;2023-05-10T01:40:39;34.05;;;18.02;;
22764;SDS011;11549;50.852;3.816;2023-05-10T01:43:16;35.53;;;18.80;;
22764;SDS011;11549;50.852;3.816;2023-05-10T01:45:50;34.05;;;18.42;;
22764;SDS011;11549;50.852;3.816;2023-05-10T01:48:32;32.38;;;18.90;;
22764;SDS011;11549;50.852;3.816;2023-05-10T01:51:01;30.65;;;17.63;;
22764;SDS011;11549;50.852;3.816;2023-05-10T01:53:30;30.13;;;16.65;;
22764;SDS011;11549;50.852;3.816;2023-05-10T01:56:01;30.58;;;17.92;;
22764;SDS011;11549;50.852;3.816;2023-05-10T01:58:31;31.80;;;17.80;;
22764;SDS011;11549;50.852;3.816;2023-05-10T02:01:03;29.05;;;15.90;;
22764;SDS011;11549;50.852;3.816;2023-05-10T02:03:34;32.70;;;17.55;;
22764;SDS011;11549;50.852;3.816;2023-05-10T02:06:04;33.72;;;18.42;;
22764;SDS011;11549;50.852;3.816;2023-05-10T02:08:34;30.02;;;17.40;;
22764;SDS011;11549;50.852;3.816;2023-05-10T02:11:04;28.48;;;17.02;;
22764;SDS011;11549;50.852;3.816;2023-05-10T02:13:32;29.25;;;16.63;;
22764;SDS011;11549;50.852;3.816;2023-05-10T02:16:03;31.02;;;17.75;;
22764;SDS011;11549;50.852;3.816;2023-05-10T02:18:35;35.50;;;19.85;;
22764;SDS011;11549;50.852;3.816;2023-05-10T02:21:04;31.05;;;18.58;;
22764;SDS011;11549;50.852;3.816;2023-05-10T02:23:33;35.42;;;20.13;;
22764;SDS011;11549;50.852;3.816;2023-05-10T02:26:03;34.13;;;20.85;;
22764;SDS011;11549;50.852;3.816;2023-05-10T02:28:34;35.08;;;20.65;;
22764;SDS011;11549;50.852;3.816;2023-05-10T02:31:04;39.03;;;21.27;;
22764;SDS011;11549;50.852;3.816;2023-05-10T02:33:35;34.92;;;20.73;;
22764;SDS011;11549;50.852;3.816;2023-05-10T02:36:04;40.47;;;23.63;;
22764;SDS011;11549;50.852;3.816;2023-05-10T02:38:35;43.78;;;23.92;;
22764;SDS011;11549;50.852;3.816;2023-05-10T02:41:04;38.83;;;22.85;;
22764;SDS011;11549;50.852;3.816;2023-05-10T02:43:35;40.88;;;23.75;;
22764;SDS011;11549;50.852;3.816;2023-05-10T02:46:05;40.50;;;21.60;;
22764;SDS011;11549;50.852;3.816;2023-05-10T02:48:35;38.58;;;21.83;;
22764;SDS011;11549;50.852;3.816;2023-05-10T02:51:05;43.67;;;23.63;;
22764;SDS011;11549;50.852;3.816;2023-05-10T02:53:36;40.28;;;22.48;;
22764;SDS011;11549;50.852;3.816;2023-05-10T02:56:12;42.80;;;22.77;;
22764;SDS011;11549;50.852;3.816;2023-05-10T02:58:45;40.97;;;22.45;;
22764;SDS011;11549;50.852;3.816;2023-05-10T03:01:13;42.17;;;23.70;;
22764;SDS011;11549;50.852;3.816;2023-05-10T03:03:43;42.17;;;24.35;;
22764;SDS011;11549;50.852;3.816;2023-05-10T03:06:11;47.30;;;25.55;;
22764;SDS011;11549;50.852;3.816;2023-05-10T03:08:40;50.10;;;25.67;;
22764;SDS011;11549;50.852;3.816;2023-05-10T03:11:12;45.35;;;25.05;;
22764;SDS011;11549;50.852;3.816;2023-05-10T03:13:54;45.63;;;24.53;;
22764;SDS011;11549;50.852;3.816;2023-05-10T03:16:32;47.28;;;26.20;;
22764;SDS011;11549;50.852;3.816;2023-05-10T03:19:16;50.85;;;25.55;;
22764;SDS011;11549;50.852;3.816;2023-05-10T03:21:50;43.50;;;26.02;;
22764;SDS011;11549;50.852;3.816;2023-05-10T03:24:21;42.85;;;25.45;;
22764;SDS011;11549;50.852;3.816;2023-05-10T03:26:50;39.33;;;22.38;;
22764;SDS011;11549;50.852;3.816;2023-05-10T03:29:23;41.05;;;22.95;;
22764;SDS011;11549;50.852;3.816;2023-05-10T03:31:54;40.15;;;22.42;;
22764;SDS011;11549;50.852;3.816;2023-05-10T03:34:27;37.88;;;20.98;;
22764;SDS011;11549;50.852;3.816;2023-05-10T03:36:58;39.22;;;20.00;;
22764;SDS011;11549;50.852;3.816;2023-05-10T03:39:27;38.10;;;20.05;;
22764;SDS011;11549;50.852;3.816;2023-05-10T03:41:55;39.28;;;20.17;;
22764;SDS011;11549;50.852;3.816;2023-05-10T03:44:23;40.67;;;20.92;;
22764;SDS011;11549;50.852;3.816;2023-05-10T03:46:52;37.63;;;21.05;;
22764;SDS011;11549;50.852;3.816;2023-05-10T03:49:20;40.85;;;22.08;;
22764;SDS011;11549;50.852;3.816;2023-05-10T03:51:49;47.28;;;22.05;;
22764;SDS011;11549;50.852;3.816;2023-05-10T03:54:18;45.97;;;22.33;;
22764;SDS011;11549;50.852;3.816;2023-05-10T03:56:46;43.60;;;20.88;;
22764;SDS011;11549;50.852;3.816;2023-05-10T03:59:15;46.22;;;21.30;;
22764;SDS011;11549;50.852;3.816;2023-05-10T04:01:43;43.40;;;20.98;;
22764;SDS011;11549;50.852;3.816;2023-05-10T04:04:12;42.33;;;21.92;;
22764;SDS011;11549;50.852;3.816;2023-05-10T04:06:40;39.95;;;20.23;;
22764;SDS011;11549;50.852;3.816;2023-05-10T04:09:10;41.72;;;20.60;;
22764;SDS011;11549;50.852;3.816;2023-05-10T04:11:39;39.65;;;19.83;;
22764;SDS011;11549;50.852;3.816;2023-05-10T04:14:07;43.78;;;19.27;;
22764;SDS011;11549;50.852;3.816;2023-05-10T04:16:36;37.25;;;18.83;;
22764;SDS011;11549;50.852;3.816;2023-05-10T04:19:04;37.53;;;19.08;;
22764;SDS011;11549;50.852;3.816;2023-05-10T04:21:33;37.72;;;19.10;;
22764;SDS011;11549;50.852;3.816;2023-05-10T04:24:01;43.03;;;21.27;;
22764;SDS011;11549;50.852;3.816;2023-05-10T04:26:31;43.47;;;20.02;;
22764;SDS011;11549;50.852;3.816;2023-05-10T04:28:59;41.47;;;20.70;;
22764;SDS011;11549;50.852;3.816;2023-05-10T04:31:29;43.38;;;21.23;;
22764;SDS011;11549;50.852;3.816;2023-05-10T04:33:57;43.47;;;21.95;;
22764;SDS011;11549;50.852;3.816;2023-05-10T04:36:25;44.20;;;21.23;;
22764;SDS011;11549;50.852;3.816;2023-05-10T04:38:54;47.90;;;22.90;;
22764;SDS011;11549;50.852;3.816;2023-05-10T04:41:22;51.88;;;23.65;;
22764;SDS011;11549;50.852;3.816;2023-05-10T04:43:54;49.97;;;22.92;;
22764;SDS011;11549;50.852;3.816;2023-05-10T04:46:22;61.28;;;24.15;;
22764;SDS011;11549;50.852;3.816;2023-05-10T04:48:51;50.50;;;24.75;;
22764;SDS011;11549;50.852;3.816;2023-05-10T04:51:19;54.72;;;24.30;;
22764;SDS011;11549;50.852;3.816;2023-05-10T04:53:48;57.35;;;24.23;;
22764;SDS011;11549;50.852;3.816;2023-05-10T04:56:30;52.50;;;23.83;;
22764;SDS011;11549;50.852;3.816;2023-05-10T04:59:00;57.92;;;25.00;;
22764;SDS011;11549;50.852;3.816;2023-05-10T05:01:28;59.03;;;25.60;;
22764;SDS011;11549;50.852;3.816;2023-05-10T05:03:57;56.80;;;24.38;;
22764;SDS011;11549;50.852;3.816;2023-05-10T05:06:26;54.63;;;25.67;;
22764;SDS011;11549;50.852;3.816;2023-05-10T05:08:54;50.30;;;24.38;;
22764;SDS011;11549;50.852;3.816;2023-05-10T05:11:22;59.25;;;25.20;;
22764;SDS011;11549;50.852;3.816;2023-05-10T05:13:51;55.40;;;24.63;;
22764;SDS011;11549;50.852;3.816;2023-05-10T05:16:21;51.40;;;24.27;;
22764;SDS011;11549;50.852;3.816;2023-05-10T05:18:49;60.15;;;24.52;;
22764;SDS011;11549;50.852;3.816;2023-05-10T05:21:19;53.80;;;23.92;;
22764;SDS011;11549;50.852;3.816;2023-05-10T05:23:47;52.20;;;24.52;;
22764;SDS011;11549;50.852;3.816;2023-05-10T05:26:16;49.58;;;22.65;;
22764;SDS011;11549;50.852;3.816;2023-05-10T05:28:45;60.88;;;23.98;;
22764;SDS011;11549;50.852;3.816;2023-05-10T05:31:15;55.25;;;23.20;;
22764;SDS011;11549;50.852;3.816;2023-05-10T05:33:46;54.42;;;22.92;;
22764;SDS011;11549;50.852;3.816;2023-05-10T05:36:14;53.90;;;23.00;;
22764;SDS011;11549;50.852;3.816;2023-05-10T05:38:43;56.90;;;23.05;;
22764;SDS011;11549;50.852;3.816;2023-05-10T05:41:11;52.00;;;23.75;;
22764;SDS011;11549;50.852;3.816;2023-05-10T05:43:39;49.30;;;22.15;;
22764;SDS011;11549;50.852;3.816;2023-05-10T05:46:08;46.95;;;22.17;;
22764;SDS011;11549;50.852;3.816;2023-05-10T05:48:36;48.17;;;22.17;;
22764;SDS011;11549;50.852;3.816;2023-05-10T05:51:06;43.65;;;22.48;;
22764;SDS011;11549;50.852;3.816;2023-05-10T05:53:34;49.33;;;22.05;;
22764;SDS011;11549;50.852;3.816;2023-05-10T05:56:03;46.97;;;22.45;;
22764;SDS011;11549;50.852;3.816;2023-05-10T05:58:32;44.38;;;20.63;;
22764;SDS011;11549;50.852;3.816;2023-05-10T06:01:00;56.20;;;23.40;;
22764;SDS011;11549;50.852;3.816;2023-05-10T06:03:28;48.20;;;21.85;;
22764;SDS011;11549;50.852;3.816;2023-05-10T06:05:57;47.20;;;22.98;;
22764;SDS011;11549;50.852;3.816;2023-05-10T06:08:27;44.83;;;21.38;;
22764;SDS011;11549;50.852;3.816;2023-05-10T06:10:55;43.90;;;22.25;;
22764;SDS011;11549;50.852;3.816;2023-05-10T06:13:23;48.53;;;21.85;;
22764;SDS011;11549;50.852;3.816;2023-05-10T06:15:55;51.58;;;22.30;;
22764;SDS011;11549;50.852;3.816;2023-05-10T06:18:23;47.55;;;21.33;;
22764;SDS011;11549;50.852;3.816;2023-05-10T06:20:52;46.85;;;23.05;;
22764;SDS011;11549;50.852;3.816;2023-05-10T06:23:20;49.67;;;23.25;;
22764;SDS011;11549;50.852;3.816;2023-05-10T06:25:50;47.40;;;23.05;;
22764;SDS011;11549;50.852;3.816;2023-05-10T06:28:19;51.00;;;23.13;;
22764;SDS011;11549;50.852;3.816;2023-05-10T06:30:48;55.85;;;23.90;;
22764;SDS011;11549;50.852;3.816;2023-05-10T06:33:17;52.35;;;22.30;;
22764;SDS011;11549;50.852;3.816;2023-05-10T06:35:45;52.13;;;23.67;;
22764;SDS011;11549;50.852;3.816;2023-05-10T06:38:14;52.17;;;22.63;;
22764;SDS011;11549;50.852;3.816;2023-05-10T06:40:42;47.45;;;23.27;;
22764;SDS011;11549;50.852;3.816;2023-05-10T06:43:12;50.72;;;23.10;;
22764;SDS011;11549;50.852;3.816;2023-05-10T06:45:40;45.85;;;21.92;;
22764;SDS011;11549;50.852;3.816;2023-05-10T06:48:09;44.17;;;20.55;;
22764;SDS011;11549;50.852;3.816;2023-05-10T06:50:37;48.10;;;21.98;;
22764;SDS011;11549;50.852;3.816;2023-05-10T06:53:06;45.75;;;21.30;;
22764;SDS011;11549;50.852;3.816;2023-05-10T06:55:34;44.22;;;21.80;;
22764;SDS011;11549;50.852;3.816;2023-05-10T06:58:02;42.85;;;21.00;;
22764;SDS011;11549;50.852;3.816;2023-05-10T07:00:32;43.80;;;20.25;;
22764;SDS011;11549;50.852;3.816;2023-05-10T07:03:01;42.28;;;20.05;;
22764;SDS011;11549;50.852;3.816;2023-05-10T07:05:29;45.10;;;21.00;;
22764;SDS011;11549;50.852;3.816;2023-05-10T07:07:58;46.65;;;20.42;;
22764;SDS011;11549;50.852;3.816;2023-05-10T07:10:26;48.25;;;19.50;;
22764;SDS011;11549;50.852;3.816;2023-05-10T07:12:54;37.92;;;19.38;;
22764;SDS011;11549;50.852;3.816;2023-05-10T07:15:23;38.50;;;19.88;;
22764;SDS011;11549;50.852;3.816;2023-05-10T07:17:53;36.50;;;18.35;;
22764;SDS011;11549;50.852;3.816;2023-05-10T07:20:21;35.22;;;18.85;;
22764;SDS011;11549;50.852;3.816;2023-05-10T07:22:50;33.40;;;17.60;;
22764;SDS011;11549;50.852;3.816;2023-05-10T07:25:18;38.72;;;18.17;;
22764;SDS011;11549;50.852;3.816;2023-05-10T07:27:47;33.10;;;17.67;;
22764;SDS011;11549;50.852;3.816;2023-05-10T07:30:15;33.22;;;16.20;;
22764;SDS011;11549;50.852;3.816;2023-05-10T07:32:44;33.60;;;15.95;;
22764;SDS011;11549;50.852;3.816;2023-05-10T07:35:14;34.03;;;15.32;;
22764;SDS011;11549;50.852;3.816;2023-05-10T07:37:43;30.45;;;15.45;;
22764;SDS011;11549;50.852;3.816;2023-05-10T07:40:11;28.88;;;14.60;;
22764;SDS011;11549;50.852;3.816;2023-05-10T07:42:39;27.30;;;14.00;;
22764;SDS011;11549;50.852;3.816;2023-05-10T07:45:08;29.35;;;13.98;;
22764;SDS011;11549;50.852;3.816;2023-05-10T07:47:37;26.67;;;13.45;;
22764;SDS011;11549;50.852;3.816;2023-05-10T07:50:06;25.48;;;12.10;;
22764;SDS011;11549;50.852;3.816;2023-05-10T07:52:37;25.15;;;13.10;;
22764;SDS011;11549;50.852;3.816;2023-05-10T07:55:05;26.40;;;12.50;;
22764;SDS011;11549;50.852;3.816;2023-05-10T07:57:34;29.20;;;13.48;;
22764;SDS011;11549;50.852;3.816;2023-05-10T08:00:03;23.85;;;13.00;;
22764;SDS011;11549;50.852;3.816;2023-05-10T08:02:32;27.60;;;12.68;;
22764;SDS011;11549;50.852;3.816;2023-05-10T08:05:01;25.70;;;12.93;;
22764;SDS011;11549;50.852;3.816;2023-05-10T08:07:31;27.00;;;13.35;;
22764;SDS011;11549;50.852;3.816;2023-05-10T08:10:01;27.35;;;13.40;;
22764;SDS011;11549;50.852;3.816;2023-05-10T08:12:30;26.00;;;12.90;;
22764;SDS011;11549;50.852;3.816;2023-05-10T08:14:58;26.73;;;13.77;;
22764;SDS011;11549;50.852;3.816;2023-05-10T08:17:26;27.98;;;14.07;;
22764;SDS011;11549;50.852;3.816;2023-05-10T08:19:55;29.45;;;14.20;;
22764;SDS011;11549;50.852;3.816;2023-05-10T08:22:23;26.85;;;14.40;;
22764;SDS011;11549;50.852;3.816;2023-05-10T08:24:51;25.02;;;13.75;;
22764;SDS011;11549;50.852;3.816;2023-05-10T08:27:21;26.02;;;13.75;;
22764;SDS011;11549;50.852;3.816;2023-05-10T08:29:51;25.35;;;14.27;;
22764;SDS011;11549;50.852;3.816;2023-05-10T08:32:20;30.23;;;14.43;;
22764;SDS011;11549;50.852;3.816;2023-05-10T08:34:48;25.10;;;13.88;;
22764;SDS011;11549;50.852;3.816;2023-05-10T08:37:16;24.38;;;14.48;;
22764;SDS011;11549;50.852;3.816;2023-05-10T08:39:44;30.55;;;15.27;;
22764;SDS011;11549;50.852;3.816;2023-05-10T08:42:14;24.83;;;13.65;;
22764;SDS011;11549;50.852;3.816;2023-05-10T08:44:48;25.95;;;14.30;;
22764;SDS011;11549;50.852;3.816;2023-05-10T08:47:17;25.85;;;14.23;;
22764;SDS011;11549;50.852;3.816;2023-05-10T08:49:46;29.73;;;15.00;;
22764;SDS011;11549;50.852;3.816;2023-05-10T08:52:17;26.02;;;14.20;;
22764;SDS011;11549;50.852;3.816;2023-05-10T08:54:46;25.52;;;14.52;;
22764;SDS011;11549;50.852;3.816;2023-05-10T08:57:15;26.30;;;15.48;;
22764;SDS011;11549;50.852;3.816;2023-05-10T08:59:43;25.45;;;14.52;;
22764;SDS011;11549;50.852;3.816;2023-05-10T09:02:13;21.85;;;14.23;;
22764;SDS011;11549;50.852;3.816;2023-05-10T09:04:44;23.92;;;14.20;;
22764;SDS011;11549;50.852;3.816;2023-05-10T09:07:13;22.83;;;14.40;;
22764;SDS011;11549;50.852;3.816;2023-05-10T09:09:42;23.63;;;14.45;;
22764;SDS011;11549;50.852;3.816;2023-05-10T09:12:11;19.13;;;13.20;;
22764;SDS011;11549;50.852;3.816;2023-05-10T09:14:42;20.63;;;13.65;;
22764;SDS011;11549;50.852;3.816;2023-05-10T09:17:15;21.77;;;13.35;;
22764;SDS011;11549;50.852;3.816;2023-05-10T09:19:44;21.30;;;13.82;;
22764;SDS011;11549;50.852;3.816;2023-05-10T09:22:12;20.48;;;12.80;;
22764;SDS011;11549;50.852;3.816;2023-05-10T09:24:42;19.52;;;13.43;;
22764;SDS011;11549;50.852;3.816;2023-05-10T09:27:11;21.00;;;14.32;;
22764;SDS011;11549;50.852;3.816;2023-05-10T09:29:40;19.33;;;14.15;;
22764;SDS011;11549;50.852;3.816;2023-05-10T09:32:09;20.00;;;13.85;;
22764;SDS011;11549;50.852;3.816;2023-05-10T09:34:40;21.77;;;14.45;;
22764;SDS011;11549;50.852;3.816;2023-05-10T09:37:09;21.10;;;14.63;;
22764;SDS011;11549;50.852;3.816;2023-05-10T09:39:37;22.42;;;14.38;;
22764;SDS011;11549;50.852;3.816;2023-05-10T09:42:06;20.30;;;13.77;;
22764;SDS011;11549;50.852;3.816;2023-05-10T09:44:35;20.75;;;14.68;;
22764;SDS011;11549;50.852;3.816;2023-05-10T09:47:04;23.83;;;15.02;;
22764;SDS011;11549;50.852;3.816;2023-05-10T09:49:32;22.40;;;15.00;;
22764;SDS011;11549;50.852;3.816;2023-05-10T09:52:03;20.73;;;14.25;;
22764;SDS011;11549;50.852;3.816;2023-05-10T09:54:32;20.00;;;14.35;;
22764;SDS011;11549;50.852;3.816;2023-05-10T09:57:01;18.08;;;13.88;;
22764;SDS011;11549;50.852;3.816;2023-05-10T09:59:29;20.88;;;13.88;;
22764;SDS011;11549;50.852;3.816;2023-05-10T10:02:01;20.00;;;14.38;;
22764;SDS011;11549;50.852;3.816;2023-05-10T10:04:30;19.73;;;14.15;;
22764;SDS011;11549;50.852;3.816;2023-05-10T10:06:59;22.23;;;14.05;;
22764;SDS011;11549;50.852;3.816;2023-05-10T10:09:31;19.95;;;13.98;;
22764;SDS011;11549;50.852;3.816;2023-05-10T10:12:03;18.10;;;13.30;;
22764;SDS011;11549;50.852;3.816;2023-05-10T10:14:32;19.88;;;14.02;;
22764;SDS011;11549;50.852;3.816;2023-05-10T10:17:02;17.00;;;13.50;;
22764;SDS011;11549;50.852;3.816;2023-05-10T10:19:34;17.55;;;13.55;;
22764;SDS011;11549;50.852;3.816;2023-05-10T10:22:03;19.23;;;13.82;;
22764;SDS011;11549;50.852;3.816;2023-05-10T10:24:34;19.77;;;14.02;;
22764;SDS011;11549;50.852;3.816;2023-05-10T10:27:04;19.15;;;13.68;;
22764;SDS011;11549;50.852;3.816;2023-05-10T10:29:51;18.85;;;13.73;;
22764;SDS011;11549;50.852;3.816;2023-05-10T10:32:29;18.77;;;12.75;;
22764;SDS011;11549;50.852;3.816;2023-05-10T10:35:05;18.40;;;12.90;;
22764;SDS011;11549;50.852;3.816;2023-05-10T10:37:42;19.17;;;13.90;;
22764;SDS011;11549;50.852;3.816;2023-05-10T10:40:26;17.52;;;13.88;;
22764;SDS011;11549;50.852;3.816;2023-05-10T10:43:20;24.35;;;14.13;;
22764;SDS011;11549;50.852;3.816;2023-05-10T10:48:47;19.23;;;12.52;;
22764;SDS011;11549;50.852;3.816;2023-05-10T10:51:17;18.10;;;13.32;;
22764;SDS011;11549;50.852;3.816;2023-05-10T10:53:47;19.02;;;12.73;;
22764;SDS011;11549;50.852;3.816;2023-05-10T10:56:17;19.30;;;12.93;;
22764;SDS011;11549;50.852;3.816;2023-05-10T10:58:51;15.15;;;12.60;;
22764;SDS011;11549;50.852;3.816;2023-05-10T11:01:20;19.58;;;13.05;;
22764;SDS011;11549;50.852;3.816;2023-05-10T11:06:47;17.65;;;11.98;;
22764;SDS011;11549;50.852;3.816;2023-05-10T11:09:15;16.77;;;12.80;;
22764;SDS011;11549;50.852;3.816;2023-05-10T11:11:52;17.40;;;12.70;;
22764;SDS011;11549;50.852;3.816;2023-05-10T11:14:22;15.65;;;11.98;;
22764;SDS011;11549;50.852;3.816;2023-05-10T11:16:51;18.63;;;13.73;;
22764;SDS011;11549;50.852;3.816;2023-05-10T11:19:19;17.33;;;13.18;;
22764;SDS011;11549;50.852;3.816;2023-05-10T11:21:48;16.67;;;12.20;;
22764;SDS011;11549;50.852;3.816;2023-05-10T11:24:18;15.57;;;11.38;;
22764;SDS011;11549;50.852;3.816;2023-05-10T11:26:49;19.48;;;12.15;;
22764;SDS011;11549;50.852;3.816;2023-05-10T11:29:20;16.77;;;11.95;;
22764;SDS011;11549;50.852;3.816;2023-05-10T11:31:49;17.15;;;12.20;;
22764;SDS011;11549;50.852;3.816;2023-05-10T11:34:24;16.50;;;12.10;;
22764;SDS011;11549;50.852;3.816;2023-05-10T11:36:54;17.10;;;12.00;;
22764;SDS011;11549;50.852;3.816;2023-05-10T11:39:25;15.90;;;12.55;;
22764;SDS011;11549;50.852;3.816;2023-05-10T11:41:55;15.73;;;12.23;;
22764;SDS011;11549;50.852;3.816;2023-05-10T11:44:30;18.08;;;12.93;;
22764;SDS011;11549;50.852;3.816;2023-05-10T11:46:59;16.05;;;12.60;;
22764;SDS011;11549;50.852;3.816;2023-05-10T11:49:27;18.00;;;12.43;;
22764;SDS011;11549;50.852;3.816;2023-05-10T11:52:03;18.52;;;12.32;;
22764;SDS011;11549;50.852;3.816;2023-05-10T11:54:32;18.23;;;13.32;;
22764;SDS011;11549;50.852;3.816;2023-05-10T11:57:03;15.27;;;12.80;;
22764;SDS011;11549;50.852;3.816;2023-05-10T11:59:33;18.45;;;12.90;;
22764;SDS011;11549;50.852;3.816;2023-05-10T12:02:01;17.20;;;12.98;;
22764;SDS011;11549;50.852;3.816;2023-05-10T12:04:29;17.80;;;13.60;;
22764;SDS011;11549;50.852;3.816;2023-05-10T12:06:58;18.25;;;13.90;;
22764;SDS011;11549;50.852;3.816;2023-05-10T12:09:26;16.80;;;13.30;;
22764;SDS011;11549;50.852;3.816;2023-05-10T12:12:08;17.00;;;13.82;;
22764;SDS011;11549;50.852;3.816;2023-05-10T12:14:38;20.75;;;15.10;;
22764;SDS011;11549;50.852;3.816;2023-05-10T12:17:11;18.05;;;13.75;;
22764;SDS011;11549;50.852;3.816;2023-05-10T12:19:39;19.80;;;15.30;;
22764;SDS011;11549;50.852;3.816;2023-05-10T12:22:08;23.58;;;17.33;;
22764;SDS011;11549;50.852;3.816;2023-05-10T12:24:36;21.25;;;17.13;;
22764;SDS011;11549;50.852;3.816;2023-05-10T12:27:08;23.15;;;17.40;;
22764;SDS011;11549;50.852;3.816;2023-05-10T12:29:40;23.38;;;18.27;;
22764;SDS011;11549;50.852;3.816;2023-05-10T12:32:10;21.95;;;17.42;;
22764;SDS011;11549;50.852;3.816;2023-05-10T12:34:39;24.48;;;17.27;;
22764;SDS011;11549;50.852;3.816;2023-05-10T12:37:07;23.85;;;18.13;;
22764;SDS011;11549;50.852;3.816;2023-05-10T12:39:39;23.52;;;17.40;;
22764;SDS011;11549;50.852;3.816;2023-05-10T12:42:08;23.50;;;17.27;;
22764;SDS011;11549;50.852;3.816;2023-05-10T12:44:38;24.95;;;18.42;;
22764;SDS011;11549;50.852;3.816;2023-05-10T12:47:07;23.58;;;17.58;;
22764;SDS011;11549;50.852;3.816;2023-05-10T12:49:35;22.60;;;17.73;;
22764;SDS011;11549;50.852;3.816;2023-05-10T12:52:03;22.85;;;18.08;;
22764;SDS011;11549;50.852;3.816;2023-05-10T12:54:32;23.60;;;17.10;;
22764;SDS011;11549;50.852;3.816;2023-05-10T12:57:00;20.73;;;16.13;;
22764;SDS011;11549;50.852;3.816;2023-05-10T12:59:29;22.13;;;16.55;;
22764;SDS011;11549;50.852;3.816;2023-05-10T13:01:58;21.27;;;15.85;;
22764;SDS011;11549;50.852;3.816;2023-05-10T13:04:27;19.65;;;15.40;;
22764;SDS011;11549;50.852;3.816;2023-05-10T13:06:55;20.17;;;15.18;;
22764;SDS011;11549;50.852;3.816;2023-05-10T13:09:25;19.15;;;15.50;;
22764;SDS011;11549;50.852;3.816;2023-05-10T13:11:55;22.08;;;14.48;;
22764;SDS011;11549;50.852;3.816;2023-05-10T13:14:24;20.63;;;15.07;;
22764;SDS011;11549;50.852;3.816;2023-05-10T13:16:52;17.48;;;13.27;;
22764;SDS011;11549;50.852;3.816;2023-05-10T13:19:22;18.20;;;13.63;;
22764;SDS011;11549;50.852;3.816;2023-05-10T13:21:51;17.88;;;14.85;;
22764;SDS011;11549;50.852;3.816;2023-05-10T13:24:19;18.80;;;14.05;;
22764;SDS011;11549;50.852;3.816;2023-05-10T13:26:48;19.15;;;14.43;;
22764;SDS011;11549;50.852;3.816;2023-05-10T13:29:16;20.00;;;14.60;;
22764;SDS011;11549;50.852;3.816;2023-05-10T13:31:45;22.55;;;15.77;;
22764;SDS011;11549;50.852;3.816;2023-05-10T13:34:14;18.23;;;14.48;;
22764;SDS011;11549;50.852;3.816;2023-05-10T13:36:44;21.27;;;15.50;;
22764;SDS011;11549;50.852;3.816;2023-05-10T13:39:12;19.23;;;14.93;;
22764;SDS011;11549;50.852;3.816;2023-05-10T13:41:41;16.75;;;10.35;;
22764;SDS011;11549;50.852;3.816;2023-05-10T13:44:11;16.92;;;9.98;;
22764;SDS011;11549;50.852;3.816;2023-05-10T13:46:40;14.65;;;9.50;;
22764;SDS011;11549;50.852;3.816;2023-05-10T13:49:08;15.13;;;9.48;;
22764;SDS011;11549;50.852;3.816;2023-05-10T13:51:37;16.92;;;9.55;;
22764;SDS011;11549;50.852;3.816;2023-05-10T13:54:06;17.67;;;11.02;;
22764;SDS011;11549;50.852;3.816;2023-05-10T13:56:38;21.80;;;11.80;;
22764;SDS011;11549;50.852;3.816;2023-05-10T13:59:07;17.38;;;10.90;;
22764;SDS011;11549;50.852;3.816;2023-05-10T14:01:35;17.98;;;11.60;;
22764;SDS011;11549;50.852;3.816;2023-05-10T14:04:04;21.63;;;11.25;;
22764;SDS011;11549;50.852;3.816;2023-05-10T14:06:33;18.50;;;11.50;;
22764;SDS011;11549;50.852;3.816;2023-05-10T14:09:01;16.35;;;11.57;;
22764;SDS011;11549;50.852;3.816;2023-05-10T14:11:31;21.05;;;13.00;;
22764;SDS011;11549;50.852;3.816;2023-05-10T14:14:00;18.20;;;11.80;;
22764;SDS011;11549;50.852;3.816;2023-05-10T14:16:28;18.02;;;11.18;;
22764;SDS011;11549;50.852;3.816;2023-05-10T14:18:57;20.42;;;12.75;;
22764;SDS011;11549;50.852;3.816;2023-05-10T14:21:26;20.85;;;12.82;;
22764;SDS011;11549;50.852;3.816;2023-05-10T14:23:55;17.85;;;12.05;;
22764;SDS011;11549;50.852;3.816;2023-05-10T14:26:24;18.63;;;12.60;;
22764;SDS011;11549;50.852;3.816;2023-05-10T14:28:54;19.70;;;11.95;;
22764;SDS011;11549;50.852;3.816;2023-05-10T14:31:22;20.23;;;12.52;;
22764;SDS011;11549;50.852;3.816;2023-05-10T14:33:52;17.70;;;12.10;;
22764;SDS011;11549;50.852;3.816;2023-05-10T14:36:20;17.15;;;11.73;;
22764;SDS011;11549;50.852;3.816;2023-05-10T14:38:49;18.98;;;12.40;;
22764;SDS011;11549;50.852;3.816;2023-05-10T14:41:18;17.30;;;11.65;;
22764;SDS011;11549;50.852;3.816;2023-05-10T14:43:46;18.30;;;11.48;;